Time;durP1;ratioP1;P1;durP2;ratioP2;P2;SDS_P1;SDS_P2;PMS_P1;PMS_P2;Temp;Humidity;BMP_temperature;BMP_pressure;BME280_temperature;BME280_humidity;BME280_pressure;Samples;Min_cycle;Max_cycle;Signal;HPM_P1;HPM_P2
2022/08/02 00:01:38;;;;;;;;;;;22.80;54.80;;;;;;5047293;28;84532;-43
2022/08/02 00:04:03;;;;;;;;;;;22.70;54.70;;;;;;5047789;28;82119;-43
2022/08/02 00:06:29;;;;;;;;;;;22.70;54.80;;;;;;5048062;27;82469;-44
2022/08/02 00:08:54;;;;;;;;;;;22.70;54.90;;;;;;5047687;28;82144;-43
2022/08/02 00:11:20;;;;;;;;;;;22.70;54.80;;;;;;5050456;28;82110;-43
2022/08/02 00:13:45;;;;;;;;;;;22.70;54.90;;;;;;5048266;28;82431;-43
2022/08/02 00:16:11;;;;;;;;;;;22.70;54.90;;;;;;5047712;28;81857;-44
2022/08/02 00:18:37;;;;;;;;;;;22.70;54.90;;;;;;5047661;27;82602;-44
2022/08/02 00:21:02;;;;;;;;;;;22.70;54.90;;;;;;5046851;28;83874;-43
2022/08/02 00:23:28;;;;;;;;;;;22.60;54.90;;;;;;5047670;28;82112;-43
2022/08/02 00:25:53;;;;;;;;;;;22.60;54.90;;;;;;5047576;28;81926;-43
2022/08/02 00:28:19;;;;;;;;;;;22.60;54.90;;;;;;5047324;28;83085;-43
2022/08/02 00:30:44;;;;;;;;;;;22.60;54.90;;;;;;5050319;28;82370;-43
2022/08/02 00:33:10;;;;;;;;;;;22.60;54.90;;;;;;5047087;28;83066;-43
2022/08/02 00:35:35;;;;;;;;;;;22.50;55.00;;;;;;5047470;28;81888;-43
2022/08/02 00:38:02;;;;;;;;;;;22.60;55.00;;;;;;5047848;28;81787;-43
2022/08/02 00:40:27;;;;;;;;;;;22.50;54.90;;;;;;5047186;28;82138;-43
2022/08/02 00:43:05;;;;;;;;;;;22.50;55.00;;;;;;5047350;28;82084;-43
2022/08/02 00:45:31;;;;;;;;;;;22.50;55.00;;;;;;5046608;28;82832;-43
2022/08/02 00:47:57;;;;;;;;;;;22.40;55.10;;;;;;5046564;28;84539;-43
2022/08/02 00:50:22;;;;;;;;;;;22.50;55.00;;;;;;5047235;28;82135;-43
2022/08/02 00:52:48;;;;;;;;;;;22.40;55.00;;;;;;5049812;28;82576;-43
2022/08/02 00:55:13;;;;;;;;;;;22.40;55.00;;;;;;5047079;28;82083;-43
2022/08/02 00:57:38;;;;;;;;;;;22.40;55.10;;;;;;5047219;28;82423;-43
2022/08/02 01:00:05;;;;;;;;;;;22.40;55.10;;;;;;5046447;28;83089;-43
2022/08/02 01:02:30;;;;;;;;;;;22.40;55.10;;;;;;5047290;28;81297;-43
2022/08/02 01:04:56;;;;;;;;;;;22.40;55.10;;;;;;5047038;28;82050;-43
2022/08/02 01:07:21;;;;;;;;;;;22.30;55.00;;;;;;5046699;28;83378;-43
2022/08/02 01:09:47;;;;;;;;;;;22.40;55.20;;;;;;5045648;28;83027;-43
2022/08/02 01:12:12;;;;;;;;;;;22.30;55.00;;;;;;5046848;28;83453;-43
2022/08/02 01:14:40;;;;;;;;;;;22.30;55.10;;;;;;5049229;27;83332;-44
2022/08/02 01:17:08;;;;;;;;;;;22.30;55.20;;;;;;5046394;28;82257;-44
2022/08/02 01:19:37;;;;;;;;;;;22.30;55.20;;;;;;5046004;28;84688;-43
2022/08/02 01:22:05;;;;;;;;;;;22.30;55.10;;;;;;5046395;28;82047;-43
2022/08/02 01:24:49;;;;;;;;;;;22.20;55.10;;;;;;5046338;27;83913;-43
2022/08/02 01:27:19;;;;;;;;;;;22.20;55.20;;;;;;5046990;27;81973;-42
2022/08/02 01:29:46;;;;;;;;;;;22.20;55.10;;;;;;5046251;28;82019;-43
2022/08/02 01:32:13;;;;;;;;;;;22.20;55.20;;;;;;5046682;27;82269;-43
2022/08/02 01:34:42;;;;;;;;;;;22.20;55.20;;;;;;5045629;28;84098;-43
2022/08/02 01:37:13;;;;;;;;;;;22.20;55.20;;;;;;5049286;28;82510;-43
2022/08/02 01:39:39;;;;;;;;;;;22.20;55.20;;;;;;5046470;28;82242;-42
2022/08/02 01:42:05;;;;;;;;;;;22.10;55.10;;;;;;5046019;28;82062;-44
2022/08/02 01:44:33;;;;;;;;;;;22.10;55.10;;;;;;5046243;27;82386;-43
2022/08/02 01:47:00;;;;;;;;;;;22.10;55.10;;;;;;5046101;28;82754;-43
2022/08/02 01:49:26;;;;;;;;;;;22.10;55.20;;;;;;5045910;28;82131;-44
2022/08/02 01:54:37;;;;;;;;;;;22.00;55.20;;;;;;5046024;28;81779;-43
2022/08/02 01:57:03;;;;;;;;;;;22.00;55.20;;;;;;5045971;28;82083;-43
2022/08/02 01:59:30;;;;;;;;;;;22.00;55.20;;;;;;5048103;27;82857;-43
2022/08/02 02:01:57;;;;;;;;;;;22.00;55.20;;;;;;5045845;28;82205;-44
2022/08/02 02:04:24;;;;;;;;;;;22.00;55.20;;;;;;5045934;27;82355;-44
2022/08/02 02:06:49;;;;;;;;;;;22.00;55.30;;;;;;5045953;28;83041;-43
2022/08/02 02:09:16;;;;;;;;;;;21.90;55.20;;;;;;5045930;28;81955;-43
2022/08/02 02:11:43;;;;;;;;;;;21.90;55.20;;;;;;5046073;27;83769;-44
2022/08/02 02:14:10;;;;;;;;;;;21.90;55.20;;;;;;5045528;27;84622;-44
2022/08/02 02:16:36;;;;;;;;;;;21.90;55.30;;;;;;5046561;28;81318;-43
2022/08/02 02:19:02;;;;;;;;;;;21.90;55.30;;;;;;5045965;28;81936;-43
2022/08/02 02:21:28;;;;;;;;;;;21.90;55.30;;;;;;5048404;27;82759;-43
2022/08/02 02:23:54;;;;;;;;;;;21.90;55.20;;;;;;5048594;27;84279;-43
2022/08/02 02:26:19;;;;;;;;;;;21.80;55.20;;;;;;5049245;28;83270;-43
2022/08/02 02:28:46;;;;;;;;;;;21.80;55.30;;;;;;5049331;28;82333;-44
2022/08/02 02:31:12;;;;;;;;;;;21.80;55.30;;;;;;5049501;27;82421;-44
2022/08/02 02:33:45;;;;;;;;;;;21.80;55.30;;;;;;5049023;28;82962;-43
2022/08/02 02:36:11;;;;;;;;;;;21.80;55.30;;;;;;5049472;28;81911;-44
2022/08/02 02:38:37;;;;;;;;;;;21.70;55.20;;;;;;5049154;28;82489;-43
2022/08/02 02:41:04;;;;;;;;;;;21.70;55.20;;;;;;5052188;28;82222;-43
2022/08/02 02:43:31;;;;;;;;;;;21.70;55.20;;;;;;5047528;28;85152;-44
2022/08/02 02:45:56;;;;;;;;;;;21.70;55.20;;;;;;5049035;28;82883;-43
2022/08/02 02:48:22;;;;;;;;;;;21.70;55.20;;;;;;5048312;28;82990;-44
2022/08/02 02:50:48;;;;;;;;;;;21.70;55.20;;;;;;5049079;27;83247;-45
2022/08/02 02:53:16;;;;;;;;;;;21.60;55.20;;;;;;5048915;28;82956;-43
2022/08/02 02:55:42;;;;;;;;;;;21.60;55.20;;;;;;5048821;28;82059;-43
2022/08/02 02:58:08;;;;;;;;;;;21.60;55.30;;;;;;5049081;27;82333;-43
2022/08/02 03:03:17;;;;;;;;;;;21.60;55.30;;;;;;5050943;28;81962;-43
2022/08/02 03:05:44;;;;;;;;;;;21.60;55.30;;;;;;5049120;28;82281;-43
2022/08/02 03:08:09;;;;;;;;;;;21.60;55.30;;;;;;5048731;28;82082;-43
2022/08/02 03:10:35;;;;;;;;;;;21.60;55.30;;;;;;5048638;28;82403;-45
2022/08/02 03:13:00;;;;;;;;;;;21.50;55.30;;;;;;5047946;28;83913;-43
2022/08/02 03:15:26;;;;;;;;;;;21.50;55.40;;;;;;5048758;28;82090;-44
2022/08/02 03:17:52;;;;;;;;;;;21.50;55.30;;;;;;5048628;28;82475;-43
2022/08/02 03:20:18;;;;;;;;;;;21.40;55.30;;;;;;5048445;28;82120;-44
2022/08/02 03:22:44;;;;;;;;;;;21.50;55.40;;;;;;5048332;28;81842;-44
2022/08/02 03:25:11;;;;;;;;;;;21.40;55.30;;;;;;5051250;27;82280;-43
2022/08/02 03:27:37;;;;;;;;;;;21.40;55.30;;;;;;5048484;28;82023;-43
2022/08/02 03:30:04;;;;;;;;;;;21.40;55.30;;;;;;5048745;27;82977;-42
2022/08/02 03:32:29;;;;;;;;;;;21.40;55.30;;;;;;5047526;27;85186;-43
2022/08/02 03:34:55;;;;;;;;;;;21.40;55.30;;;;;;5048319;28;82085;-43
2022/08/02 03:37:21;;;;;;;;;;;21.30;55.30;;;;;;5047589;28;83335;-43
2022/08/02 03:39:47;;;;;;;;;;;21.40;55.40;;;;;;5048109;28;82986;-43
2022/08/02 03:42:14;;;;;;;;;;;21.40;55.40;;;;;;5048058;28;82018;-43
2022/08/02 03:44:39;;;;;;;;;;;21.30;55.40;;;;;;5048429;27;82072;-43
2022/08/02 03:47:06;;;;;;;;;;;21.30;55.40;;;;;;5050308;28;83439;-43
2022/08/02 03:49:32;;;;;;;;;;;21.30;55.40;;;;;;5048195;27;82259;-44
2022/08/02 03:51:59;;;;;;;;;;;21.30;55.50;;;;;;5048007;28;83094;-43
2022/08/02 03:54:25;;;;;;;;;;;21.30;55.50;;;;;;5048388;28;81248;-43
2022/08/02 03:56:51;;;;;;;;;;;21.20;55.40;;;;;;5048167;28;82371;-43
2022/08/02 03:59:16;;;;;;;;;;;21.30;55.40;;;;;;5048224;28;83099;-43
2022/08/02 04:01:42;;;;;;;;;;;21.20;55.40;;;;;;5047001;28;83100;-43
2022/08/02 04:04:07;;;;;;;;;;;21.20;55.50;;;;;;5046471;28;86382;-43
2022/08/02 04:06:33;;;;;;;;;;;21.20;55.40;;;;;;5047680;28;82973;-43
2022/08/02 04:08:58;;;;;;;;;;;21.20;55.50;;;;;;5050730;28;82192;-43
2022/08/02 04:11:30;;;;;;;;;;;21.20;55.50;;;;;;5047779;28;83466;-43
2022/08/02 04:13:56;;;;;;;;;;;21.20;55.50;;;;;;5047847;28;81917;-43
2022/08/02 04:16:22;;;;;;;;;;;21.20;55.50;;;;;;5047822;27;82517;-43
2022/08/02 04:18:54;;;;;;;;;;;21.10;55.80;;;;;;5048022;28;82155;-43
2022/08/02 04:21:20;;;;;;;;;;;21.10;55.50;;;;;;5047555;28;83787;-43
2022/08/02 04:23:47;;;;;;;;;;;21.10;55.40;;;;;;5047323;27;84468;-43
2022/08/02 04:26:13;;;;;;;;;;;21.10;55.50;;;;;;5046542;28;85433;-45
2022/08/02 04:28:39;;;;;;;;;;;21.10;55.50;;;;;;5047681;28;82529;-43
2022/08/02 04:31:05;;;;;;;;;;;21.00;55.50;;;;;;5049981;27;81994;-43
2022/08/02 04:33:31;;;;;;;;;;;21.00;55.60;;;;;;5047078;28;81972;-44
2022/08/02 04:35:57;;;;;;;;;;;21.00;55.60;;;;;;5047388;27;82423;-44
2022/08/02 04:38:23;;;;;;;;;;;21.00;55.60;;;;;;5046878;28;83400;-45
2022/08/02 04:40:49;;;;;;;;;;;21.00;55.60;;;;;;5045739;28;82297;-43
2022/08/02 04:43:15;;;;;;;;;;;21.00;55.60;;;;;;5047771;27;82056;-43
2022/08/02 04:45:41;;;;;;;;;;;21.00;55.60;;;;;;5046099;28;83242;-44
2022/08/02 04:48:07;;;;;;;;;;;21.00;55.60;;;;;;5046920;28;81997;-43
2022/08/02 04:50:32;;;;;;;;;;;21.00;55.70;;;;;;5049043;28;82809;-43
2022/08/02 04:52:58;;;;;;;;;;;21.00;55.60;;;;;;5047170;28;81962;-43
2022/08/02 04:55:27;;;;;;;;;;;21.00;55.60;;;;;;5047031;28;82609;-44
2022/08/02 04:57:56;;;;;;;;;;;20.90;55.70;;;;;;5046892;28;82139;-43
2022/08/02 05:00:23;;;;;;;;;;;20.90;55.70;;;;;;5046262;28;82062;-43
2022/08/02 05:02:48;;;;;;;;;;;20.90;55.70;;;;;;5046775;28;82364;-44
2022/08/02 05:05:14;;;;;;;;;;;20.90;55.70;;;;;;5046511;28;83085;-43
2022/08/02 05:07:39;;;;;;;;;;;20.90;55.70;;;;;;5047297;28;81212;-43
2022/08/02 05:10:05;;;;;;;;;;;20.90;55.70;;;;;;5046903;28;82014;-43
2022/08/02 05:12:31;;;;;;;;;;;20.90;55.70;;;;;;5049325;28;82962;-43
2022/08/02 05:14:56;;;;;;;;;;;20.90;55.70;;;;;;5046716;28;84152;-43
2022/08/02 05:17:22;;;;;;;;;;;20.90;55.80;;;;;;5046743;28;83037;-43
2022/08/02 05:19:47;;;;;;;;;;;20.90;55.90;;;;;;5046532;28;81954;-44
2022/08/02 05:22:13;;;;;;;;;;;20.90;55.80;;;;;;5046702;27;82617;-43
2022/08/02 05:24:38;;;;;;;;;;;20.90;55.90;;;;;;5046337;28;82252;-43
2022/08/02 05:27:04;;;;;;;;;;;20.80;56.00;;;;;;5046696;28;82065;-43
2022/08/02 05:29:29;;;;;;;;;;;20.80;56.10;;;;;;5046559;28;82642;-43
2022/08/02 05:31:55;;;;;;;;;;;20.80;56.30;;;;;;5047060;28;82465;-43
2022/08/02 05:34:20;;;;;;;;;;;20.80;56.30;;;;;;5049042;28;82043;-43
2022/08/02 05:36:46;;;;;;;;;;;20.80;56.20;;;;;;5046412;28;83155;-43
2022/08/02 05:39:11;;;;;;;;;;;20.80;56.20;;;;;;5045649;28;82998;-43
2022/08/02 05:41:37;;;;;;;;;;;20.80;56.30;;;;;;5046351;27;83629;-43
2022/08/02 05:44:02;;;;;;;;;;;20.80;56.20;;;;;;5046155;28;83092;-44
2022/08/02 05:46:28;;;;;;;;;;;20.80;56.30;;;;;;5046322;28;82043;-43
2022/08/02 05:48:54;;;;;;;;;;;20.80;56.30;;;;;;5046168;27;82069;-42
2022/08/02 05:51:22;;;;;;;;;;;20.80;56.30;;;;;;5046181;28;83092;-42
2022/08/02 05:53:55;;;;;;;;;;;20.80;56.30;;;;;;5046204;28;82152;-43
2022/08/02 05:56:27;;;;;;;;;;;20.80;56.40;;;;;;5048971;27;82527;-43
2022/08/02 05:59:14;;;;;;;;;;;20.80;56.50;;;;;;5045762;28;81877;-43
2022/08/02 06:01:40;;;;;;;;;;;20.80;56.50;;;;;;5045796;27;82488;-43
2022/08/02 06:04:07;;;;;;;;;;;20.80;56.60;;;;;;5045171;28;83854;-43
2022/08/02 06:06:33;;;;;;;;;;;20.80;56.60;;;;;;5046198;28;82041;-43
2022/08/02 06:09:05;;;;;;;;;;;20.80;56.60;;;;;;5046132;28;81996;-43
2022/08/02 06:11:35;;;;;;;;;;;20.80;56.60;;;;;;5045745;28;84494;-43
2022/08/02 06:14:02;;;;;;;;;;;20.80;56.70;;;;;;5045844;28;82103;-43
2022/08/02 06:16:28;;;;;;;;;;;20.80;56.70;;;;;;5045871;27;81949;-43
2022/08/02 06:18:55;;;;;;;;;;;20.80;56.70;;;;;;5048545;28;83002;-43
2022/08/02 06:21:21;;;;;;;;;;;20.80;56.70;;;;;;5046570;28;81594;-45
2022/08/02 06:23:47;;;;;;;;;;;20.80;56.80;;;;;;5045742;28;82238;-43
2022/08/02 06:26:13;;;;;;;;;;;20.80;56.90;;;;;;5045846;28;82033;-43
2022/08/02 06:28:39;;;;;;;;;;;20.80;56.80;;;;;;5045102;27;83001;-42
2022/08/02 06:31:05;;;;;;;;;;;20.80;57.00;;;;;;5045568;28;83254;-43
2022/08/02 06:33:31;;;;;;;;;;;20.80;57.00;;;;;;5045847;28;82070;-43
2022/08/02 06:36:01;;;;;;;;;;;20.80;57.00;;;;;;5045850;27;82379;-43
2022/08/02 06:38:31;;;;;;;;;;;20.80;56.90;;;;;;5045794;28;82109;-43
2022/08/02 06:41:02;;;;;;;;;;;20.80;56.90;;;;;;5048230;28;81655;-43
2022/08/02 06:43:28;;;;;;;;;;;20.80;56.90;;;;;;5045212;28;84624;-44
2022/08/02 06:45:53;;;;;;;;;;;20.80;56.80;;;;;;5046152;28;81318;-44
2022/08/02 06:48:19;;;;;;;;;;;20.80;56.90;;;;;;5045411;28;82146;-43
2022/08/02 06:50:44;;;;;;;;;;;20.80;56.80;;;;;;5045413;28;82985;-43
2022/08/02 06:53:10;;;;;;;;;;;20.80;57.00;;;;;;5044981;28;82928;-42
2022/08/02 06:55:36;;;;;;;;;;;20.80;57.00;;;;;;5045368;28;83390;-43
2022/08/02 06:58:02;;;;;;;;;;;20.80;56.80;;;;;;5044830;28;83660;-44
2022/08/02 07:00:28;;;;;;;;;;;20.80;56.90;;;;;;5047431;28;82098;-43
2022/08/02 07:02:53;;;;;;;;;;;20.80;57.00;;;;;;5045344;28;82992;-42
2022/08/02 07:05:19;;;;;;;;;;;20.80;57.10;;;;;;5045083;28;81805;-43
2022/08/02 07:07:45;;;;;;;;;;;20.90;57.00;;;;;;5045697;27;82388;-43
2022/08/02 07:10:11;;;;;;;;;;;20.80;57.10;;;;;;5049063;28;82018;-43
2022/08/02 07:12:37;;;;;;;;;;;20.80;57.00;;;;;;5048427;28;82193;-42
2022/08/02 07:15:04;;;;;;;;;;;20.80;57.00;;;;;;5048852;28;82318;-43
2022/08/02 07:17:29;;;;;;;;;;;20.80;57.00;;;;;;5047671;28;84138;-43
2022/08/02 07:19:55;;;;;;;;;;;20.80;57.00;;;;;;5048633;28;82122;-44
2022/08/02 07:22:23;;;;;;;;;;;20.80;57.10;;;;;;5051188;28;81999;-42
2022/08/02 07:24:48;;;;;;;;;;;20.80;57.10;;;;;;5048495;28;82014;-43
2022/08/02 07:27:14;;;;;;;;;;;20.80;57.10;;;;;;5048624;27;82194;-45
2022/08/02 07:29:40;;;;;;;;;;;20.80;57.10;;;;;;5048604;28;83328;-43
2022/08/02 07:32:06;;;;;;;;;;;20.90;57.10;;;;;;5048565;28;81998;-44
2022/08/02 07:34:31;;;;;;;;;;;20.90;57.10;;;;;;5049106;27;81471;-42
2022/08/02 07:36:57;;;;;;;;;;;20.90;57.20;;;;;;5048385;28;83008;-44
2022/08/02 07:39:22;;;;;;;;;;;20.90;57.10;;;;;;5048372;28;81772;-43
2022/08/02 07:41:50;;;;;;;;;;;20.90;57.20;;;;;;5047255;27;82920;-43
2022/08/02 07:44:16;;;;;;;;;;;20.80;57.20;;;;;;5050394;28;84684;-43
2022/08/02 07:46:41;;;;;;;;;;;20.80;57.20;;;;;;5047975;27;84136;-45
2022/08/02 07:49:07;;;;;;;;;;;20.90;57.20;;;;;;5047938;28;82182;-43
2022/08/02 07:51:34;;;;;;;;;;;20.80;57.10;;;;;;5048071;28;81992;-43
2022/08/02 07:54:00;;;;;;;;;;;20.90;57.40;;;;;;5047869;28;83906;-43
2022/08/02 07:56:26;;;;;;;;;;;20.80;57.20;;;;;;5047709;28;83144;-43
2022/08/02 07:58:51;;;;;;;;;;;20.80;57.10;;;;;;5048469;28;81301;-43
2022/08/02 08:01:17;;;;;;;;;;;20.90;57.30;;;;;;5047183;27;83215;-43
2022/08/02 08:03:42;;;;;;;;;;;20.90;57.20;;;;;;5047906;28;82687;-43
2022/08/02 08:06:08;;;;;;;;;;;20.90;57.20;;;;;;5050290;28;83032;-44
2022/08/02 08:08:34;;;;;;;;;;;20.90;57.30;;;;;;5047758;28;83034;-44
2022/08/02 08:10:59;;;;;;;;;;;20.90;57.20;;;;;;5047706;28;82381;-44
2022/08/02 08:13:25;;;;;;;;;;;20.90;57.10;;;;;;5048025;28;82373;-43
2022/08/02 08:15:50;;;;;;;;;;;20.90;57.00;;;;;;5047534;28;82967;-43
2022/08/02 08:18:16;;;;;;;;;;;20.90;57.10;;;;;;5047483;28;81903;-43
2022/08/02 08:20:41;;;;;;;;;;;20.90;57.10;;;;;;5047555;28;82553;-43
2022/08/02 08:23:07;;;;;;;;;;;20.90;57.10;;;;;;5048152;28;82339;-43
2022/08/02 08:25:32;;;;;;;;;;;20.90;57.10;;;;;;5047631;28;82066;-43
2022/08/02 08:27:58;;;;;;;;;;;20.90;57.10;;;;;;5049910;28;82236;-43
2022/08/02 08:30:23;;;;;;;;;;;20.90;57.10;;;;;;5047114;28;83258;-43
2022/08/02 08:32:49;;;;;;;;;;;21.00;57.10;;;;;;5047494;27;83062;-43
2022/08/02 08:35:15;;;;;;;;;;;21.00;57.10;;;;;;5047072;28;84253;-43
2022/08/02 08:37:41;;;;;;;;;;;21.00;57.10;;;;;;5047218;28;82049;-43
2022/08/02 08:40:07;;;;;;;;;;;21.00;57.00;;;;;;5047461;28;82395;-42
2022/08/02 08:42:34;;;;;;;;;;;21.00;57.10;;;;;;5046748;28;83752;-44
2022/08/02 08:45:00;;;;;;;;;;;21.00;57.10;;;;;;5047145;28;82006;-44
2022/08/02 08:47:31;;;;;;;;;;;21.00;57.00;;;;;;5050481;27;82196;-43
2022/08/02 08:49:59;;;;;;;;;;;21.00;56.90;;;;;;5047051;28;81748;-43
2022/08/02 08:52:25;;;;;;;;;;;21.00;56.90;;;;;;5045765;28;85566;-43
2022/08/02 08:54:51;;;;;;;;;;;21.00;57.00;;;;;;5046139;28;84105;-44
2022/08/02 08:57:19;;;;;;;;;;;21.10;57.00;;;;;;5046954;28;81868;-43
2022/08/02 08:59:44;;;;;;;;;;;21.10;57.00;;;;;;5046654;27;82293;-43
2022/08/02 09:02:10;;;;;;;;;;;21.10;57.00;;;;;;5046881;28;83045;-43
2022/08/02 09:04:36;;;;;;;;;;;21.10;56.70;;;;;;5047125;28;81951;-43
2022/08/02 09:07:01;;;;;;;;;;;21.10;56.80;;;;;;5046923;27;82802;-44
2022/08/02 09:09:27;;;;;;;;;;;21.20;56.60;;;;;;5049465;28;83004;-44
2022/08/02 09:11:52;;;;;;;;;;;21.20;56.80;;;;;;5047237;28;81718;-43
2022/08/02 09:14:24;;;;;;;;;;;21.20;56.70;;;;;;5046666;28;81838;-42
2022/08/02 09:16:50;;;;;;;;;;;21.20;56.50;;;;;;5046789;28;81960;-43
2022/08/02 09:19:20;;;;;;;;;;;21.20;56.50;;;;;;5046170;28;82853;-43
2022/08/02 09:21:47;;;;;;;;;;;21.20;56.50;;;;;;5046257;28;84428;-43
2022/08/02 09:24:19;;;;;;;;;;;21.30;56.60;;;;;;5046663;28;81912;-42
2022/08/02 09:26:46;;;;;;;;;;;21.30;56.60;;;;;;5046310;27;82933;-43
2022/08/02 09:29:12;;;;;;;;;;;21.30;56.60;;;;;;5046471;28;83097;-43
2022/08/02 09:31:37;;;;;;;;;;;21.30;56.60;;;;;;5048744;27;82319;-43
2022/08/02 09:34:03;;;;;;;;;;;21.30;56.60;;;;;;5046558;28;82832;-43
2022/08/02 09:36:39;;;;;;;;;;;21.30;56.60;;;;;;5046983;28;81797;-43
2022/08/02 09:39:06;;;;;;;;;;;21.40;56.60;;;;;;5046268;27;83209;-44
2022/08/02 09:41:33;;;;;;;;;;;21.40;56.60;;;;;;5046208;28;82790;-43
2022/08/02 09:43:59;;;;;;;;;;;21.40;56.60;;;;;;5045653;28;82907;-43
2022/08/02 09:46:26;;;;;;;;;;;21.40;56.60;;;;;;5046017;27;84740;-43
2022/08/02 09:48:53;;;;;;;;;;;21.50;56.40;;;;;;5045626;28;84792;-44
2022/08/02 09:51:20;;;;;;;;;;;21.50;56.50;;;;;;5045824;28;82115;-43
2022/08/02 09:53:46;;;;;;;;;;;21.50;56.40;;;;;;5048608;27;82393;-43
2022/08/02 09:56:11;;;;;;;;;;;21.50;56.40;;;;;;5046301;28;82065;-42
2022/08/02 09:58:38;;;;;;;;;;;21.50;56.40;;;;;;5045968;27;84018;-43
2022/08/02 10:01:03;;;;;;;;;;;21.50;56.40;;;;;;5045800;28;82264;-43
2022/08/02 10:03:29;;;;;;;;;;;21.50;56.40;;;;;;5045953;28;81951;-43
2022/08/02 10:05:57;;;;;;;;;;;21.50;56.30;;;;;;5046123;27;82444;-43
2022/08/02 10:08:23;;;;;;;;;;;21.60;56.40;;;;;;5045078;28;83908;-43
2022/08/02 10:10:59;;;;;;;;;;;21.60;56.40;;;;;;5045849;28;82129;-43
2022/08/02 10:13:32;;;;;;;;;;;21.60;56.40;;;;;;5045806;28;82618;-43
2022/08/02 10:15:57;;;;;;;;;;;21.60;56.40;;;;;;5048509;28;82551;-43
2022/08/02 10:18:23;;;;;;;;;;;21.60;56.40;;;;;;5046018;27;82448;-44
2022/08/02 10:20:49;;;;;;;;;;;21.60;56.40;;;;;;5045405;28;81793;-44
2022/08/02 10:23:15;;;;;;;;;;;21.70;56.50;;;;;;5046041;28;82195;-43
2022/08/02 10:25:41;;;;;;;;;;;21.70;56.40;;;;;;5046532;27;81727;-43
2022/08/02 10:28:07;;;;;;;;;;;21.70;56.30;;;;;;5045780;28;82498;-43
2022/08/02 10:30:36;;;;;;;;;;;21.80;56.30;;;;;;5045826;28;81967;-42
2022/08/02 10:33:03;;;;;;;;;;;21.80;56.20;;;;;;5044911;28;82946;-42
2022/08/02 10:35:31;;;;;;;;;;;21.80;56.10;;;;;;5045104;28;84364;-44
2022/08/02 10:37:59;;;;;;;;;;;21.90;56.20;;;;;;5048508;28;82072;-43
2022/08/02 10:40:40;;;;;;;;;;;21.90;56.20;;;;;;5045386;28;82165;-43
2022/08/02 10:43:06;;;;;;;;;;;21.90;56.20;;;;;;5046553;27;81997;-43
2022/08/02 10:45:33;;;;;;;;;;;21.90;56.20;;;;;;5049431;28;82805;-42
2022/08/02 10:47:59;;;;;;;;;;;21.90;56.30;;;;;;5048522;28;84493;-42
2022/08/02 10:50:48;;;;;;;;;;;21.90;56.30;;;;;;5049501;28;81400;-43
2022/08/02 10:53:22;;;;;;;;;;;21.90;56.20;;;;;;5043165;27;82043;-43
2022/08/02 10:55:48;;;;;;;;;;;22.00;56.20;;;;;;5048927;28;82668;-42
2022/08/02 10:58:18;;;;;;;;;;;22.00;56.30;;;;;;5050965;28;82779;-42
2022/08/02 11:00:43;;;;;;;;;;;22.00;56.20;;;;;;5047975;28;82935;-43
2022/08/02 11:03:27;;;;;;;;;;;22.00;56.30;;;;;;5049012;28;81996;-43
2022/08/02 11:06:12;;;;;;;;;;;22.00;56.40;;;;;;5048723;28;83854;-43
2022/08/02 11:08:38;;;;;;;;;;;22.00;56.40;;;;;;5048661;28;82461;-42
2022/08/02 11:11:12;;;;;;;;;;;22.10;56.40;;;;;;5048598;28;81966;-42
2022/08/02 11:13:56;;;;;;;;;;;22.10;56.50;;;;;;5048785;28;82629;-43
2022/08/02 11:16:22;;;;;;;;;;;22.10;56.30;;;;;;5049150;27;82146;-42
2022/08/02 11:18:51;;;;;;;;;;;22.10;56.30;;;;;;5048651;28;82090;-42
2022/08/02 11:21:19;;;;;;;;;;;22.20;56.40;;;;;;5051081;28;82354;-42
2022/08/02 11:23:44;;;;;;;;;;;22.20;56.40;;;;;;5048193;28;83048;-42
2022/08/02 11:26:28;;;;;;;;;;;22.20;56.40;;;;;;5048462;28;83433;-43
2022/08/02 11:28:55;;;;;;;;;;;22.20;56.40;;;;;;5048397;27;82952;-43
2022/08/02 11:31:20;;;;;;;;;;;22.30;56.30;;;;;;5048433;28;82045;-44
2022/08/02 11:33:47;;;;;;;;;;;22.20;56.20;;;;;;5048337;28;82656;-44
2022/08/02 11:36:14;;;;;;;;;;;22.30;56.30;;;;;;5048457;28;82857;-43
2022/08/02 11:38:39;;;;;;;;;;;22.30;56.30;;;;;;5048269;28;81871;-43
2022/08/02 11:41:05;;;;;;;;;;;22.30;56.30;;;;;;5048848;28;82318;-43
2022/08/02 11:43:31;;;;;;;;;;;22.30;56.30;;;;;;5050905;28;83018;-43
2022/08/02 11:45:56;;;;;;;;;;;22.30;56.30;;;;;;5048372;28;82350;-43
2022/08/02 11:48:35;;;;;;;;;;;22.30;56.40;;;;;;5046986;28;84676;-43
2022/08/02 11:51:06;;;;;;;;;;;22.30;56.40;;;;;;5048114;28;82065;-43
2022/08/02 11:53:42;;;;;;;;;;;22.40;56.40;;;;;;5047707;28;82503;-43
2022/08/02 11:56:08;;;;;;;;;;;22.40;56.30;;;;;;5047570;28;84428;-43
2022/08/02 11:58:34;;;;;;;;;;;22.40;56.30;;;;;;5047611;28;82441;-42
2022/08/02 12:01:00;;;;;;;;;;;22.40;56.40;;;;;;5047611;27;82425;-42
2022/08/02 12:03:26;;;;;;;;;;;22.40;56.30;;;;;;5047689;28;82928;-43
2022/08/02 12:05:51;;;;;;;;;;;22.50;56.30;;;;;;5051365;28;81380;-43
2022/08/02 12:08:17;;;;;;;;;;;22.60;56.20;;;;;;5047687;28;82376;-43
2022/08/02 12:10:46;;;;;;;;;;;22.60;56.10;;;;;;5047942;28;83069;-42
2022/08/02 12:13:12;;;;;;;;;;;22.60;56.20;;;;;;5046825;27;84197;-42
2022/08/02 12:15:44;;;;;;;;;;;22.60;56.10;;;;;;5047169;28;83163;-42
2022/08/02 12:21:00;;;;;;;;;;;22.60;56.20;;;;;;5047845;28;81978;-43
2022/08/02 12:23:26;;;;;;;;;;;22.70;56.10;;;;;;5047518;28;83011;-44
2022/08/02 12:26:05;;;;;;;;;;;22.70;56.10;;;;;;5047606;27;81931;-43
2022/08/02 12:28:35;;;;;;;;;;;22.70;56.10;;;;;;5049908;27;82947;-42
2022/08/02 12:31:01;;;;;;;;;;;22.70;56.00;;;;;;5047997;28;81304;-43
2022/08/02 12:33:27;;;;;;;;;;;22.80;56.00;;;;;;5047626;28;81964;-44
2022/08/02 12:35:53;;;;;;;;;;;22.80;56.00;;;;;;5047400;28;82850;-43
2022/08/02 12:38:19;;;;;;;;;;;22.80;55.90;;;;;;5046628;28;82916;-43
2022/08/02 12:40:45;;;;;;;;;;;22.90;55.90;;;;;;5047358;27;84739;-43
2022/08/02 12:43:23;;;;;;;;;;;22.90;55.90;;;;;;5046718;28;84608;-42
2022/08/02 12:45:48;;;;;;;;;;;22.90;55.80;;;;;;5047209;28;82106;-42
2022/08/02 12:48:14;;;;;;;;;;;22.90;55.90;;;;;;5047467;28;82410;-43
2022/08/02 12:50:40;;;;;;;;;;;22.90;56.00;;;;;;5049502;28;83023;-42
2022/08/02 12:53:05;;;;;;;;;;;22.90;55.90;;;;;;5047321;27;82414;-42
2022/08/02 12:55:32;;;;;;;;;;;22.90;55.90;;;;;;5046900;28;83564;-43
2022/08/02 12:58:01;;;;;;;;;;;23.00;55.90;;;;;;5046924;28;82094;-42
2022/08/02 13:00:31;;;;;;;;;;;23.00;55.80;;;;;;5046333;28;82485;-42
2022/08/02 13:02:57;;;;;;;;;;;23.00;55.80;;;;;;5046039;28;82745;-42
2022/08/02 13:05:23;;;;;;;;;;;23.10;56.40;;;;;;5046307;27;81933;-42
2022/08/02 13:07:49;;;;;;;;;;;23.10;55.80;;;;;;5046574;27;84177;-43
2022/08/02 13:10:15;;;;;;;;;;;23.10;55.70;;;;;;5049514;28;82960;-42
2022/08/02 13:12:41;;;;;;;;;;;23.10;55.60;;;;;;5046615;27;83826;-43
2022/08/02 13:15:07;;;;;;;;;;;23.10;55.70;;;;;;5046666;28;82759;-42
2022/08/02 13:17:32;;;;;;;;;;;23.20;55.50;;;;;;5046668;28;82153;-43
2022/08/02 13:19:58;;;;;;;;;;;23.20;55.60;;;;;;5047237;27;82422;-44
2022/08/02 13:22:24;;;;;;;;;;;23.30;55.80;;;;;;5046706;28;82761;-42
2022/08/02 13:24:50;;;;;;;;;;;23.30;55.70;;;;;;5046451;28;82094;-42
2022/08/02 13:27:16;;;;;;;;;;;23.30;55.60;;;;;;5045793;27;83822;-42
2022/08/02 13:29:42;;;;;;;;;;;23.30;55.70;;;;;;5046104;28;84475;-44
2022/08/02 13:32:07;;;;;;;;;;;23.30;55.60;;;;;;5048861;28;82097;-43
2022/08/02 13:34:33;;;;;;;;;;;23.40;55.60;;;;;;5046366;28;82973;-42
2022/08/02 13:36:59;;;;;;;;;;;23.40;55.60;;;;;;5046504;28;81939;-43
2022/08/02 13:39:24;;;;;;;;;;;23.40;55.60;;;;;;5046457;27;82221;-43
2022/08/02 13:41:50;;;;;;;;;;;23.50;55.60;;;;;;5046227;28;82384;-43
2022/08/02 13:44:15;;;;;;;;;;;23.50;55.60;;;;;;5046509;28;81356;-43
2022/08/02 13:46:41;;;;;;;;;;;23.50;55.50;;;;;;5046230;27;83303;-42
2022/08/02 13:49:06;;;;;;;;;;;23.50;55.50;;;;;;5045696;28;83540;-43
2022/08/02 13:51:32;;;;;;;;;;;23.60;55.50;;;;;;5045708;28;83056;-43
2022/08/02 13:53:57;;;;;;;;;;;23.60;55.50;;;;;;5048514;28;83848;-42
2022/08/02 13:56:23;;;;;;;;;;;23.60;55.40;;;;;;5046387;28;82109;-42
2022/08/02 13:58:48;;;;;;;;;;;23.60;55.40;;;;;;5046306;28;82541;-45
2022/08/02 14:01:14;;;;;;;;;;;23.70;55.50;;;;;;5045597;28;82503;-44
2022/08/02 14:03:39;;;;;;;;;;;23.60;55.50;;;;;;5046044;28;82067;-43
2022/08/02 14:06:05;;;;;;;;;;;23.60;55.50;;;;;;5046226;28;82401;-42
2022/08/02 14:08:31;;;;;;;;;;;23.70;55.60;;;;;;5046102;28;83458;-43
2022/08/02 14:10:56;;;;;;;;;;;23.70;55.50;;;;;;5044372;28;82221;-42
2022/08/02 14:13:22;;;;;;;;;;;23.70;55.50;;;;;;5045768;27;83741;-42
2022/08/02 14:15:48;;;;;;;;;;;23.70;55.40;;;;;;5047952;28;83015;-42
2022/08/02 14:18:14;;;;;;;;;;;23.70;55.40;;;;;;5048640;28;83110;-43
2022/08/02 14:20:39;;;;;;;;;;;23.80;55.30;;;;;;5049144;28;84292;-44
2022/08/02 14:23:05;;;;;;;;;;;23.80;55.30;;;;;;5049419;28;82267;-43